Latest Weather Observations for Deniliquin

IDN60801

Issued at 2:03 pm EDT Sunday 22 October 2017 (issued every 30 minutes, with the page automatically refreshed every 10 minutes)

About weather observations | Map of weather stations | Latest weather observations for NSW | Other Formats
Station Details ID: 074258 Name: DENILIQUIN AIRPORT AWS Lat: -35.56 Lon: 144.95 Height: 94.0 m
Data from the previous 72 hours. | See also: Recent months at Deniliquin
Date/Time
EDT
Temp
°C
App
Temp
°C
Dew
Point
°C
Rel
Hum
%
Delta-T
°C
Wind Press
QNH
hPa
Press
MSL
hPa
Rain since
9am
mm
Dir  Spd
km/h
Gust
km/h
Spd
kts
Gust
kts
22/02:00pm 19.7 14.0 5.0 38 7.2 S 24 44 13 24 1016.7 1016.6 0.0
22/01:30pm 19.9 13.5 5.2 38 7.2 SSW 28 41 15 22 1016.8 1016.7 0.0
22/01:00pm 19.7 14.0 5.0 38 7.2 SSW 24 35 13 19 1016.9 1016.8 0.0
22/12:30pm 18.5 12.1 5.0 41 6.5 SSW 28 41 15 22 1017.4 1017.3 0.0
22/12:00pm 18.5 12.1 5.0 41 6.5 SW 28 41 15 22 1017.7 1017.6 0.0
22/11:30am 17.8 11.7 4.7 42 6.3 SSW 26 37 14 20 1018.1 1018.0 0.0
22/11:00am 16.8 9.6 5.1 46 5.6 SSW 32 56 17 30 1018.2 1018.1 0.0
22/10:59am 17.2 10.1 5.5 46 5.7 SSW 32 56 17 30 1018.1 1018.0 0.0
22/10:30am 16.3 9.6 5.6 49 5.2 SSW 30 43 16 23 1018.4 1018.3 0.0
22/10:00am 15.0 8.6 5.2 52 4.6 SSW 28 41 15 22 1018.3 1018.2 0.0
22/09:46am 15.3 8.7 6.1 54 4.5 SSW 30 50 16 27 1018.3 1018.2 0.0
22/09:30am 14.2 7.5 5.6 56 4.1 SSW 30 41 16 22 1018.3 1018.2 0.0
22/09:00am 13.3 6.3 5.9 61 3.5 SSW 32 39 17 21 1018.2 1018.1 0.0
22/08:30am 11.9 5.6 5.8 66 2.9 SW 28 37 15 20 1018.2 1018.1 0.0
22/08:00am 10.4 5.3 6.0 74 2.0 SW 22 32 12 17 1018.0 1017.9 0.0
22/07:30am 8.3 4.0 5.2 81 1.4 WSW 17 22 9 12 1017.8 1017.7 0.0
22/07:00am 6.2 2.5 4.5 89 0.7 WSW 13 17 7 9 1017.6 1017.5 0.0
22/06:30am 5.4 1.6 3.9 90 0.6 WSW 13 17 7 9 1017.3 1017.2 0.0
22/06:00am 6.0 3.0 4.2 88 0.8 WSW 9 13 5 7 1017.1 1017.0 0.0
22/05:30am 6.3 2.6 4.6 89 0.7 WSW 13 17 7 9 1017.3 1017.2 0.0
22/05:00am 6.8 2.7 4.6 86 1.0 SW 15 17 8 9 1017.4 1017.3 0.0
22/04:30am 7.6 3.3 5.1 84 1.1 SW 17 19 9 10 1017.6 1017.5 0.0
22/04:00am 7.7 2.9 4.7 81 1.3 SW 19 22 10 12 1017.7 1017.6 0.0
22/03:30am 8.2 3.3 4.2 76 1.8 SW 19 22 10 12 1017.8 1017.7 0.0
22/03:00am 8.6 3.5 4.0 73 2.0 SW 20 24 11 13 1018.0 1017.9 0.0
22/02:30am 8.5 4.3 3.6 71 2.1 SW 15 19 8 10 1018.2 1018.1 0.0
22/02:00am 8.9 4.0 4.1 72 2.1 SW 19 20 10 11 1018.4 1018.3 0.0
22/01:30am 8.2 4.4 3.7 73 1.9 SW 13 17 7 9 1018.7 1018.6 0.0
22/01:00am 9.4 5.3 4.2 70 2.3 SW 15 19 8 10 1018.9 1018.8 0.0
22/12:30am 8.0 4.2 3.7 74 1.9 SW 13 15 7 8 1019.2 1019.1 0.0
22/12:00am 8.1 4.2 3.6 73 1.9 SW 13 15 7 8 1019.5 1019.4 0.0
 
Date/Time
EDT
Temp
°C
App
Temp
°C
Dew
Point
°C
Rel
Hum
%
Delta-T
°C
Wind Press
QNH
hPa
Press
MSL
hPa
Rain since
9am
mm
Dir  Spd
km/h
Gust
km/h
Spd
kts
Gust
kts
21/11:30pm 9.2 5.0 3.6 68 2.4 SW 15 17 8 9 1019.7 1019.6 0.0
21/11:00pm 10.1 5.5 3.8 65 2.8 SW 17 17 9 9 1019.8 1019.7 0.0
21/10:30pm 10.4 6.6 3.7 63 3.0 SW 13 15 7 8 1019.9 1019.8 0.0
21/10:00pm 11.9 7.3 3.7 57 3.7 SW 17 19 9 10 1020.0 1019.9 0.0
21/09:30pm 12.7 8.1 3.6 54 4.1 SSW 17 22 9 12 1019.9 1019.8 0.0
21/09:00pm 13.9 8.7 3.4 49 4.7 SW 20 26 11 14 1019.9 1019.8 0.0
21/08:30pm 14.6 7.9 3.4 47 5.1 SW 28 37 15 20 1019.7 1019.6 0.0
21/08:00pm 15.6 8.8 3.1 43 5.7 SW 28 37 15 20 1019.5 1019.4 0.0
21/07:30pm 16.5 8.9 2.9 40 6.2 SW 32 39 17 21 1019.2 1019.1 0.0
21/07:00pm 18.0 10.2 3.1 37 6.9 SW 33 44 18 24 1019.1 1019.0 0.0
21/06:30pm 18.8 11.6 3.0 35 7.4 SW 30 39 16 21 1018.8 1018.7 0.0
21/06:00pm 20.0 13.0 1.9 30 8.3 SSW 28 37 15 20 1018.8 1018.7 0.0
21/05:30pm 20.5 13.5 1.9 29 8.6 SSW 28 37 15 20 1018.9 1018.8 0.0
21/05:00pm 20.5 13.0 0.9 27 8.9 SSW 30 41 16 22 1019.0 1018.9 0.0
21/04:30pm 20.3 13.0 0.2 26 9.0 SW 28 43 15 23 1019.1 1019.0 0.0
21/04:00pm 21.2 15.0 2.0 28 8.9 SSW 24 37 13 20 1019.4 1019.3 0.0
21/03:30pm 21.7 14.9 2.9 29 9.0 SW 28 41 15 22 1019.8 1019.7 0.0
21/03:00pm 21.0 14.8 2.3 29 8.7 SW 24 39 13 21 1020.4 1020.3 0.0
21/02:30pm 20.8 13.8 2.1 29 8.7 SW 28 44 15 24 1020.8 1020.7 0.0
21/02:00pm 20.3 13.0 2.6 31 8.3 SW 30 43 16 23 1021.1 1021.0 0.0
21/01:46pm 20.3 14.0 3.5 33 8.0 SSW 26 46 14 25 1021.3 1021.2 0.0
21/01:30pm 19.3 12.4 2.6 33 7.8 SW 28 35 15 19 1021.7 1021.6 0.0
21/01:00pm 19.3 12.5 3.1 34 7.6 SW 28 39 15 21 1022.0 1021.9 0.0
21/12:30pm 19.0 13.1 4.0 37 7.2 SW 24 33 13 18 1022.5 1022.4 0.0
21/12:00pm 17.8 11.8 3.3 38 6.7 SW 24 32 13 17 1023.0 1022.9 0.0
21/11:30am 16.8 11.7 4.2 43 5.9 SSW 20 39 11 21 1023.6 1023.5 0.0
21/11:00am 15.5 10.4 4.3 47 5.2 SSW 20 32 11 17 1024.0 1023.9 0.0
21/10:30am 14.8 9.9 4.2 49 4.9 SSW 19 26 10 14 1024.2 1024.1 0.0
21/10:00am 13.7 8.6 4.3 53 4.3 SSW 20 30 11 16 1024.3 1024.2 0.0
21/09:30am 12.4 6.5 3.9 56 3.8 SSW 24 32 13 17 1024.3 1024.2 0.0
21/09:00am 11.7 5.9 4.2 60 3.4 SSW 24 30 13 16 1024.4 1024.3 0.0
21/08:30am 9.8 4.6 3.8 66 2.6 SSW 20 28 11 15 1024.5 1024.4 0.0
21/08:00am 8.3 3.7 3.8 73 1.9 SSW 17 22 9 12 1024.4 1024.3 0.0
21/07:30am 6.8 2.1 3.4 79 1.4 SSW 17 22 9 12 1024.5 1024.4 0.0
21/07:00am 5.6 0.9 3.3 85 1.0 SW 17 22 9 12 1024.3 1024.2 0.0
21/06:30am 4.5 0.1 2.5 87 0.8 SW 15 17 8 9 1024.1 1024.0 0.0
21/06:00am 4.5 0.1 2.5 87 0.8 SW 15 17 8 9 1023.9 1023.8 0.0
21/05:30am 5.0 0.6 2.7 85 0.9 SSW 15 19 8 10 1024.2 1024.1 0.0
21/05:00am 5.3 1.3 2.8 84 1.0 SW 13 15 7 8 1024.2 1024.1 0.0
21/04:30am 5.7 1.4 3.0 83 1.1 SSW 15 19 8 10 1024.1 1024.0 0.0
21/04:00am 6.2 1.5 3.4 82 1.2 SSW 17 20 9 11 1024.3 1024.2 0.0
21/03:30am 6.8 1.8 3.4 79 1.4 SW 19 22 10 12 1024.6 1024.5 0.0
21/03:00am 7.1 2.0 3.3 77 1.6 SSW 19 22 10 12 1024.6 1024.5 0.0
21/02:30am 7.5 2.4 3.2 74 1.8 SSW 19 22 10 12 1024.8 1024.7 0.0
21/02:00am 7.6 2.9 2.9 72 2.0 SW 17 20 9 11 1025.0 1024.9 0.0
21/01:30am 7.7 3.7 2.8 71 2.1 SW 13 19 7 10 1025.3 1025.3 0.0
21/01:00am 8.2 3.3 2.2 66 2.5 SSW 17 22 9 12 1025.5 1025.5 0.0
21/12:30am 8.9 3.4 2.0 62 2.9 SSW 20 28 11 15 1025.5 1025.5 0.0
21/12:00am 9.8 3.9 1.9 58 3.3 SSW 22 26 12 14 1025.6 1025.6 0.0
 
Date/Time
EDT
Temp
°C
App
Temp
°C
Dew
Point
°C
Rel
Hum
%
Delta-T
°C
Wind Press
QNH
hPa
Press
MSL
hPa
Rain since
9am
mm
Dir  Spd
km/h
Gust
km/h
Spd
kts
Gust
kts
20/11:30pm 10.4 4.5 1.8 55 3.6 SSW 22 28 12 15 1025.8 1025.8 0.0
20/11:00pm 10.8 4.5 1.6 53 3.9 SSW 24 32 13 17 1025.8 1025.8 0.0
20/10:30pm 11.5 3.7 1.5 50 4.2 SSW 32 43 17 23 1025.6 1025.6 0.0
20/10:00pm 12.2 4.3 0.9 46 4.7 SSW 32 41 17 22 1025.3 1025.3 0.0
20/09:30pm 12.9 5.6 0.3 42 5.3 SSW 28 37 15 20 1025.2 1025.1 0.0
20/09:00pm 13.6 5.5 -0.1 39 5.7 SSW 32 41 17 22 1025.1 1025.0 0.0
20/08:30pm 14.2 5.9 -0.3 37 6.1 SSW 33 46 18 25 1024.8 1024.7 0.0
20/08:00pm 14.9 6.6 -0.4 35 6.4 SSW 33 46 18 25 1024.3 1024.2 0.0
20/07:30pm 15.7 8.8 -0.1 34 6.7 S 26 33 14 18 1023.8 1023.7 0.0
20/07:00pm 17.1 8.8 -0.1 31 7.4 SSW 33 50 18 27 1023.4 1023.3 0.0
20/06:30pm 18.2 9.2 -0.1 29 8.0 SSW 37 48 20 26 1023.1 1023.0 0.0
20/06:00pm 18.9 9.6 0.5 29 8.1 SSW 39 56 21 30 1022.9 1022.8 0.0
20/05:30pm 19.6 10.5 1.6 30 8.2 SSW 39 56 21 30 1022.7 1022.6 0.0
20/05:14pm 20.3 12.0 2.2 30 8.4 SSW 35 54 19 29 1022.5 1022.4 0.0
20/05:00pm 20.4 11.3 1.8 29 8.5 SSW 39 50 21 27 1022.6 1022.5 0.0
20/04:30pm 20.1 10.8 0.5 27 8.8 SSW 39 56 21 30 1022.6 1022.5 0.0
20/04:00pm 20.9 12.1 1.2 27 9.0 S 37 52 20 28 1022.6 1022.5 0.0
20/03:30pm 20.8 11.4 0.1 25 9.3 SSW 39 54 21 29 1022.8 1022.7 0.0
20/03:16pm 20.5 11.4 -0.7 24 9.3 S 37 56 20 30 1022.8 1022.7 0.0
20/03:00pm 21.0 11.9 -0.3 24 9.4 SSW 37 54 20 29 1023.0 1022.9 0.0
20/02:30pm 20.7 11.2 -0.6 24 9.4 SW 39 48 21 26 1023.3 1023.2 0.0
20/02:16pm 20.4 11.7 -0.3 25 9.2 SSW 35 54 19 29 1023.3 1023.2 0.0
20/02:00pm 20.4 12.3 0.8 27 8.8 SW 33 48 18 26 1023.5 1023.4 0.0
20/01:36pm 19.8 11.4 -0.8 25 9.0 SSW 33 52 18 28 1023.8 1023.7 0.0
20/01:30pm 20.2 12.1 1.1 28 8.7 SSW 33 46 18 25 1023.8 1023.7 0.0
20/01:05pm 19.1 10.3 1.1 30 8.1 SSW 37 56 20 30 1024.0 1023.9 0.0
20/01:00pm 19.3 10.0 0.4 28 8.4 SSW 39 56 21 30 1024.1 1024.0 0.0
20/12:57pm 19.5 10.6 1.0 29 8.3 SSW 37 56 20 30 1024.1 1024.0 0.0
20/12:30pm 18.5 9.3 1.1 31 7.8 SSW 39 54 21 29 1024.3 1024.2 0.0
20/12:02pm 18.4 10.5 1.0 31 7.8 SSW 32 54 17 29 1024.5 1024.4 0.0
20/12:00pm 18.1 10.3 1.6 33 7.4 SSW 32 44 17 24 1024.6 1024.5 0.0
20/11:30am 17.9 9.1 1.4 33 7.4 SSW 37 50 20 27 1024.8 1024.7 0.0
20/11:19am 17.6 9.7 2.0 35 7.1 SSW 33 52 18 28 1024.8 1024.7 0.0
20/11:00am 16.9 8.7 2.9 39 6.4 SSW 35 50 19 27 1025.0 1024.9 0.0
20/10:30am 16.2 7.9 2.2 39 6.3 SSW 35 46 19 25 1025.1 1025.0 0.0
20/10:00am 15.6 6.5 2.1 40 6.0 SSW 39 52 21 28 1025.1 1025.0 0.0
20/09:30am 14.6 5.7 2.8 45 5.3 SSW 39 54 21 29 1024.9 1024.8 0.0
20/09:20am 14.2 6.2 3.7 49 4.8 SSW 35 54 19 29 1024.9 1024.8 0.0
20/09:00am 13.4 5.6 5.1 57 3.9 SSW 35 44 19 24 1025.0 1024.9 1.4
20/08:30am 12.7 5.5 6.1 64 3.1 SSW 33 46 18 25 1024.8 1024.7 1.4
20/08:00am 11.3 5.0 5.8 69 2.6 SSW 28 41 15 22 1024.6 1024.5 1.4
20/07:30am 9.8 4.3 6.0 77 1.8 SW 24 30 13 16 1024.3 1024.2 1.4
20/07:00am 8.1 3.5 5.4 83 1.2 SW 19 24 10 13 1024.0 1023.9 1.4
20/06:30am 7.5 3.1 5.0 84 1.1 SW 17 24 9 13 1023.5 1023.4 1.4
20/06:00am 7.6 3.6 5.1 84 1.1 SW 15 17 8 9 1023.2 1023.1 1.4
20/05:30am 8.5 4.9 5.1 79 1.5 SW 13 17 7 9 1022.9 1022.8 1.4
20/05:00am 9.6 4.9 5.0 73 2.1 SW 19 26 10 14 1022.6 1022.5 1.4
20/04:30am 10.3 5.3 4.7 68 2.5 SSW 20 26 11 14 1022.6 1022.5 1.4
20/04:00am 11.2 5.8 4.4 63 3.1 SSW 22 35 12 19 1022.4 1022.3 1.4
20/03:30am 11.8 6.0 4.5 61 3.3 SSW 24 33 13 18 1022.2 1022.1 1.4
20/03:00am 12.5 6.8 6.5 67 2.9 SSW 26 35 14 19 1022.1 1022.0 1.4
20/02:30am 13.6 8.2 7.8 68 2.9 SSW 26 37 14 20 1022.0 1021.9 1.4
20/02:00am 14.3 9.5 8.9 70 2.7 SSW 24 35 13 19 1021.6 1021.5 1.4
20/01:30am 15.6 9.8 9.5 67 3.2 SSW 30 43 16 23 1021.3 1021.2 1.4
20/01:00am 16.1 12.6 12.1 77 2.2 SW 22 28 12 15 1021.2 1021.1 1.4
20/12:30am 17.3 12.5 10.4 64 3.7 SW 26 33 14 18 1021.2 1021.1 1.4
20/12:00am 17.8 14.5 11.6 67 3.4 WSW 20 26 11 14 1020.8 1020.7 1.4
 
Date/Time
EDT
Temp
°C
App
Temp
°C
Dew
Point
°C
Rel
Hum
%
Delta-T
°C
Wind Press
QNH
hPa
Press
MSL
hPa
Rain since
9am
mm
Dir  Spd
km/h
Gust
km/h
Spd
kts
Gust
kts
19/11:30pm 18.3 13.5 10.4 60 4.2 WSW 26 35 14 19 1020.7 1020.6 1.4
19/11:00pm 18.1 13.5 9.7 58 4.4 WSW 24 30 13 16 1020.8 1020.7 1.4
19/10:30pm 18.7 14.4 9.2 54 5.0 WSW 22 30 12 16 1020.8 1020.7 1.4
19/10:00pm 19.9 14.4 9.2 50 5.7 WSW 28 39 15 21 1020.4 1020.3 1.4
19/09:30pm 21.0 18.0 13.7 63 4.2 WSW 22 32 12 17 1020.0 1019.9 1.4
19/09:00pm 21.8 18.6 14.2 62 4.4 WSW 24 28 13 15 1019.5 1019.4 1.4
19/08:30pm 21.9 19.7 14.3 62 4.5 WSW 19 24 10 13 1019.0 1018.9 1.4
19/08:00pm 22.8 20.4 14.4 59 5.0 SW 20 26 11 14 1018.7 1018.6 1.4
19/07:30pm 24.6 22.1 14.1 52 6.2 WSW 20 32 11 17 1017.8 1017.7 1.4
19/07:00pm 25.0 22.2 13.2 48 6.9 WSW 20 26 11 14 1017.0 1016.9 1.4
19/06:30pm 27.2 22.1 13.2 42 8.3 WSW 32 44 17 24 1016.5 1016.4 1.4
19/06:00pm 27.3 23.6 14.0 44 7.9 SW 26 37 14 20 1016.1 1015.9 1.4
19/05:30pm 28.9 23.6 13.2 38 9.3 WSW 33 46 18 25 1015.8 1015.6 1.4
19/05:00pm 29.6 23.8 13.8 38 9.5 SW 37 50 20 27 1015.1 1015.0 1.2
19/04:30pm 29.2 25.0 13.4 38 9.4 WSW 28 41 15 22 1014.7 1014.6 1.2
19/04:00pm 29.2 28.5 17.4 49 7.5 W 17 24 9 13 1014.7 1014.6 1.2
19/03:30pm 28.4 28.8 19.1 57 6.0 N 15 19 8 10 1014.8 1014.7 1.2
19/03:00pm 25.7 26.2 21.1 76 3.0 N 20 28 11 15 1015.7 1015.5 1.2
19/02:30pm 26.1 24.7 18.8 64 4.7 NNW 24 33 13 18 1016.5 1016.4 0.0

Other Formats:

Comma delimited format used in spreadsheet applications
http://www.bom.gov.au/fwo/IDN60801/IDN60801.95869.axf

JavaScript Object Notation format (JSON) in row-major order
http://www.bom.gov.au/fwo/IDN60801/IDN60801.95869.json